CFG2PM EDDF-EDDN
Flight info
| Callsign | CFG2PM |
|---|---|
| Flight time | 0h 31m |
| Altitude | 21000 |
| Route | CINDY8S/18 CINDY Z74 HAREM T104 ELMOX DCT LETKU LETKU1V |
| Aircraft | A21N/M-SDE2E3FGHIRWXY/LB1 |
Departure
| Time | 2026-04-14 07:57 |
|---|---|
| Airport | Frankfurt Main Airport (EDDF) |
Arrival
| Time | 2026-04-14 08:28 |
|---|---|
| Airport | Nuremberg Airport (EDDN) |
| Time | Latitude | Longitude | Altitude | Speed | Heading |
|---|---|---|---|---|---|
| 2026-04-14 07:29 | 50.04887 | 8.57445 | 360 ft | 0 kts | 217° |
| 2026-04-14 07:44 | 50.04889 | 8.57448 | 362 ft | 3 kts | 217° |
| 2026-04-14 07:44 | 50.04904 | 8.57466 | 361 ft | 3 kts | 217° |
| 2026-04-14 07:44 | 50.04919 | 8.57483 | 361 ft | 3 kts | 216° |
| 2026-04-14 07:44 | 50.04936 | 8.57495 | 361 ft | 3 kts | 172° |
| 2026-04-14 07:45 | 50.04951 | 8.57480 | 361 ft | 3 kts | 124° |
| 2026-04-14 07:45 | 50.04953 | 8.57477 | 361 ft | 0 kts | 120° |
| 2026-04-14 07:48 | 50.04921 | 8.57573 | 357 ft | 18 kts | 114° |
| 2026-04-14 07:48 | 50.04870 | 8.57761 | 359 ft | 19 kts | 114° |
| 2026-04-14 07:48 | 50.04786 | 8.57910 | 361 ft | 18 kts | 157° |
| 2026-04-14 07:49 | 50.04696 | 8.57852 | 358 ft | 16 kts | 248° |
| 2026-04-14 07:49 | 50.04651 | 8.57672 | 358 ft | 20 kts | 250° |
| 2026-04-14 07:49 | 50.04601 | 8.57458 | 357 ft | 21 kts | 249° |
| 2026-04-14 07:49 | 50.04548 | 8.57238 | 358 ft | 22 kts | 250° |
| 2026-04-14 07:50 | 50.04498 | 8.57021 | 360 ft | 21 kts | 249° |
| 2026-04-14 07:50 | 50.04444 | 8.56803 | 355 ft | 22 kts | 251° |
| 2026-04-14 07:50 | 50.04394 | 8.56588 | 361 ft | 19 kts | 249° |
| 2026-04-14 07:50 | 50.04347 | 8.56390 | 356 ft | 20 kts | 249° |
| 2026-04-14 07:51 | 50.04298 | 8.56184 | 361 ft | 21 kts | 250° |
| 2026-04-14 07:51 | 50.04247 | 8.55970 | 359 ft | 21 kts | 250° |
| 2026-04-14 07:51 | 50.04194 | 8.55749 | 361 ft | 22 kts | 250° |
| 2026-04-14 07:51 | 50.04140 | 8.55522 | 360 ft | 23 kts | 250° |
| 2026-04-14 07:52 | 50.04090 | 8.55315 | 355 ft | 20 kts | 249° |
| 2026-04-14 07:52 | 50.04041 | 8.55111 | 354 ft | 21 kts | 250° |
| 2026-04-14 07:52 | 50.03991 | 8.54899 | 355 ft | 21 kts | 249° |
| 2026-04-14 07:52 | 50.03937 | 8.54682 | 360 ft | 22 kts | 245° |
| 2026-04-14 07:53 | 50.03888 | 8.54470 | 358 ft | 20 kts | 251° |
| 2026-04-14 07:53 | 50.03856 | 8.54364 | 361 ft | 0 kts | 234° |
| 2026-04-14 07:53 | 50.03836 | 8.54320 | 360 ft | 14 kts | 234° |
| 2026-04-14 07:53 | 50.03788 | 8.54173 | 358 ft | 16 kts | 250° |
| 2026-04-14 07:54 | 50.03749 | 8.54007 | 360 ft | 17 kts | 250° |
| 2026-04-14 07:54 | 50.03702 | 8.53810 | 360 ft | 20 kts | 249° |
| 2026-04-14 07:54 | 50.03650 | 8.53600 | 355 ft | 21 kts | 247° |
| 2026-04-14 07:54 | 50.03597 | 8.53384 | 358 ft | 22 kts | 249° |
| 2026-04-14 07:55 | 50.03545 | 8.53167 | 361 ft | 21 kts | 250° |
| 2026-04-14 07:55 | 50.03494 | 8.52954 | 358 ft | 21 kts | 250° |
| 2026-04-14 07:55 | 50.03439 | 8.52747 | 358 ft | 20 kts | 248° |
| 2026-04-14 07:55 | 50.03357 | 8.52597 | 356 ft | 12 kts | 187° |
| 2026-04-14 07:56 | 50.03349 | 8.52595 | 354 ft | 0 kts | 185° |
| 2026-04-14 07:56 | 50.03258 | 8.52590 | 355 ft | 44 kts | 181° |
| 2026-04-14 07:56 | 50.02720 | 8.52599 | 352 ft | 113 kts | 179° |
| 2026-04-14 07:56 | 50.01698 | 8.52618 | 410 ft | 171 kts | 179° |
| 2026-04-14 07:57 | 50.00522 | 8.52657 | 1175 ft | 171 kts | 180° |
| 2026-04-14 07:57 | 49.99258 | 8.52691 | 1931 ft | 194 kts | 180° |
| 2026-04-14 07:57 | 49.97821 | 8.52748 | 2613 ft | 220 kts | 172° |
| 2026-04-14 07:57 | 49.96376 | 8.53668 | 3263 ft | 233 kts | 134° |
| 2026-04-14 07:58 | 49.95398 | 8.55660 | 3792 ft | 232 kts | 117° |
| 2026-04-14 07:58 | 49.94628 | 8.57859 | 4147 ft | 233 kts | 113° |
| 2026-04-14 07:58 | 49.94097 | 8.60242 | 4981 ft | 236 kts | 97° |
| 2026-04-14 07:58 | 49.93908 | 8.62872 | 5616 ft | 255 kts | 91° |
| 2026-04-14 07:59 | 49.93813 | 8.65698 | 6418 ft | 267 kts | 92° |
| 2026-04-14 07:59 | 49.93464 | 8.68563 | 7308 ft | 276 kts | 111° |
| 2026-04-14 07:59 | 49.92370 | 8.71016 | 8247 ft | 282 kts | 138° |
| 2026-04-14 07:59 | 49.90826 | 8.72919 | 9263 ft | 285 kts | 146° |
| 2026-04-14 08:00 | 49.89223 | 8.74737 | 10312 ft | 288 kts | 141° |
| 2026-04-14 08:00 | 49.87843 | 8.77134 | 10850 ft | 312 kts | 126° |
| 2026-04-14 08:00 | 49.86671 | 8.80137 | 11232 ft | 338 kts | 121° |
| 2026-04-14 08:00 | 49.85498 | 8.83424 | 11744 ft | 357 kts | 120° |
| 2026-04-14 08:01 | 49.84289 | 8.86835 | 12515 ft | 366 kts | 120° |
| 2026-04-14 08:01 | 49.83046 | 8.90314 | 13392 ft | 372 kts | 121° |
| 2026-04-14 08:01 | 49.81774 | 8.93844 | 14253 ft | 378 kts | 121° |
| 2026-04-14 08:01 | 49.80484 | 8.97409 | 15079 ft | 382 kts | 121° |
| 2026-04-14 08:02 | 49.79174 | 9.01014 | 15961 ft | 386 kts | 121° |
| 2026-04-14 08:02 | 49.77852 | 9.04642 | 16861 ft | 389 kts | 121° |
| 2026-04-14 08:02 | 49.76569 | 9.08361 | 17739 ft | 395 kts | 116° |
| 2026-04-14 08:02 | 49.75672 | 9.12398 | 18569 ft | 400 kts | 107° |
| 2026-04-14 08:03 | 49.74890 | 9.16537 | 19230 ft | 403 kts | 112° |
| 2026-04-14 08:03 | 49.73625 | 9.20408 | 19859 ft | 405 kts | 124° |
| 2026-04-14 08:03 | 49.71977 | 9.23957 | 20480 ft | 408 kts | 130° |
| 2026-04-14 08:03 | 49.70161 | 9.27325 | 20926 ft | 409 kts | 133° |
| 2026-04-14 08:04 | 49.68264 | 9.30596 | 21095 ft | 410 kts | 134° |
| 2026-04-14 08:04 | 49.66325 | 9.33857 | 21120 ft | 427 kts | 134° |
| 2026-04-14 08:04 | 49.64272 | 9.37313 | 21114 ft | 445 kts | 134° |
| 2026-04-14 08:04 | 49.62166 | 9.40903 | 21108 ft | 454 kts | 133° |
| 2026-04-14 08:05 | 49.60062 | 9.44545 | 21106 ft | 456 kts | 133° |
| 2026-04-14 08:05 | 49.57959 | 9.48218 | 21102 ft | 457 kts | 132° |
| 2026-04-14 08:05 | 49.55858 | 9.51907 | 21107 ft | 458 kts | 132° |
| 2026-04-14 08:05 | 49.53762 | 9.55592 | 21100 ft | 458 kts | 132° |
| 2026-04-14 08:06 | 49.51660 | 9.59285 | 21099 ft | 458 kts | 132° |
| 2026-04-14 08:06 | 49.49554 | 9.62975 | 21101 ft | 458 kts | 132° |
| 2026-04-14 08:06 | 49.47451 | 9.66653 | 21103 ft | 458 kts | 132° |
| 2026-04-14 08:06 | 49.45342 | 9.70334 | 21099 ft | 458 kts | 132° |
| 2026-04-14 08:07 | 49.43231 | 9.74010 | 21104 ft | 458 kts | 132° |
| 2026-04-14 08:07 | 49.41143 | 9.77698 | 21101 ft | 458 kts | 129° |
| 2026-04-14 08:07 | 49.39423 | 9.81825 | 21100 ft | 460 kts | 117° |
| 2026-04-14 08:07 | 49.38396 | 9.86463 | 21096 ft | 462 kts | 102° |
| 2026-04-14 08:08 | 49.37969 | 9.91340 | 21104 ft | 460 kts | 96° |
| 2026-04-14 08:08 | 49.37712 | 9.96115 | 21097 ft | 436 kts | 95° |
| 2026-04-14 08:08 | 49.37497 | 10.00654 | 21101 ft | 420 kts | 95° |
| 2026-04-14 08:08 | 49.37288 | 10.05093 | 21102 ft | 418 kts | 95° |
| 2026-04-14 08:09 | 49.37075 | 10.09540 | 21101 ft | 418 kts | 95° |
| 2026-04-14 08:09 | 49.36860 | 10.13991 | 21102 ft | 418 kts | 95° |
| 2026-04-14 08:09 | 49.36643 | 10.18431 | 21099 ft | 418 kts | 95° |
| 2026-04-14 08:09 | 49.36423 | 10.22879 | 21107 ft | 418 kts | 95° |
| 2026-04-14 08:10 | 49.36201 | 10.27320 | 21104 ft | 418 kts | 95° |
| 2026-04-14 08:10 | 49.35977 | 10.31770 | 21104 ft | 418 kts | 95° |
| 2026-04-14 08:10 | 49.35749 | 10.36260 | 20920 ft | 426 kts | 95° |
| 2026-04-14 08:10 | 49.35517 | 10.40791 | 20664 ft | 427 kts | 95° |
| 2026-04-14 08:11 | 49.35284 | 10.45321 | 20409 ft | 425 kts | 95° |
| 2026-04-14 08:11 | 49.35157 | 10.49846 | 20154 ft | 424 kts | 88° |
| 2026-04-14 08:11 | 49.35642 | 10.54282 | 19901 ft | 423 kts | 72° |
| 2026-04-14 08:11 | 49.36923 | 10.58322 | 19648 ft | 422 kts | 55° |
| 2026-04-14 08:12 | 49.38809 | 10.61755 | 19416 ft | 421 kts | 46° |
| 2026-04-14 08:12 | 49.40783 | 10.65050 | 19098 ft | 415 kts | 52° |
| 2026-04-14 08:12 | 49.42258 | 10.68790 | 18508 ft | 408 kts | 69° |
| 2026-04-14 08:12 | 49.42906 | 10.72987 | 17788 ft | 402 kts | 87° |
| 2026-04-14 08:13 | 49.42783 | 10.77229 | 17138 ft | 395 kts | 97° |
| 2026-04-14 08:13 | 49.42405 | 10.81388 | 16495 ft | 391 kts | 99° |
| 2026-04-14 08:13 | 49.41990 | 10.85490 | 15872 ft | 386 kts | 99° |
| 2026-04-14 08:13 | 49.41581 | 10.89540 | 15248 ft | 382 kts | 99° |
| 2026-04-14 08:14 | 49.41180 | 10.93561 | 14620 ft | 379 kts | 99° |
| 2026-04-14 08:14 | 49.40786 | 10.97538 | 14027 ft | 376 kts | 100° |
| 2026-04-14 08:14 | 49.40395 | 11.01494 | 13380 ft | 373 kts | 99° |
| 2026-04-14 08:14 | 49.40008 | 11.05415 | 12780 ft | 369 kts | 99° |
| 2026-04-14 08:15 | 49.39626 | 11.09283 | 12184 ft | 365 kts | 99° |
| 2026-04-14 08:15 | 49.39247 | 11.13110 | 11597 ft | 361 kts | 99° |
| 2026-04-14 08:15 | 49.38869 | 11.16906 | 11010 ft | 358 kts | 99° |
| 2026-04-14 08:15 | 49.38496 | 11.20652 | 10587 ft | 348 kts | 99° |
| 2026-04-14 08:16 | 49.38141 | 11.24215 | 10484 ft | 328 kts | 100° |
| 2026-04-14 08:16 | 49.37804 | 11.27581 | 10389 ft | 310 kts | 100° |
| 2026-04-14 08:16 | 49.37485 | 11.30759 | 10274 ft | 294 kts | 99° |
| 2026-04-14 08:16 | 49.37179 | 11.33786 | 10143 ft | 282 kts | 100° |
| 2026-04-14 08:17 | 49.36883 | 11.36710 | 9983 ft | 274 kts | 100° |
| 2026-04-14 08:17 | 49.36590 | 11.39589 | 9574 ft | 273 kts | 100° |
| 2026-04-14 08:17 | 49.36297 | 11.42462 | 9218 ft | 271 kts | 99° |
| 2026-04-14 08:17 | 49.36007 | 11.45307 | 8867 ft | 269 kts | 99° |
| 2026-04-14 08:18 | 49.35816 | 11.47173 | 8633 ft | 267 kts | 100° |
| 2026-04-14 08:18 | 49.35528 | 11.49982 | 8293 ft | 267 kts | 99° |
| 2026-04-14 08:18 | 49.35241 | 11.52786 | 7953 ft | 265 kts | 99° |
| 2026-04-14 08:18 | 49.35141 | 11.55584 | 7681 ft | 259 kts | 84° |
| 2026-04-14 08:19 | 49.35636 | 11.58192 | 7327 ft | 255 kts | 60° |
| 2026-04-14 08:19 | 49.36770 | 11.60235 | 6990 ft | 250 kts | 35° |
| 2026-04-14 08:19 | 49.38282 | 11.61359 | 6829 ft | 235 kts | 14° |
| 2026-04-14 08:19 | 49.39841 | 11.61860 | 6548 ft | 227 kts | 7° |
| 2026-04-14 08:20 | 49.41404 | 11.61946 | 6141 ft | 222 kts | 351° |
| 2026-04-14 08:20 | 49.42854 | 11.61274 | 5770 ft | 216 kts | 330° |
| 2026-04-14 08:20 | 49.44005 | 11.59884 | 5497 ft | 208 kts | 310° |
| 2026-04-14 08:20 | 49.44743 | 11.57985 | 5250 ft | 208 kts | 290° |
| 2026-04-14 08:21 | 49.45090 | 11.55828 | 4986 ft | 208 kts | 281° |
| 2026-04-14 08:21 | 49.45315 | 11.53620 | 4714 ft | 209 kts | 280° |
| 2026-04-14 08:21 | 49.45540 | 11.51466 | 4566 ft | 197 kts | 282° |
| 2026-04-14 08:21 | 49.45764 | 11.49462 | 4567 ft | 186 kts | 281° |
| 2026-04-14 08:22 | 49.45964 | 11.47506 | 4574 ft | 186 kts | 280° |
| 2026-04-14 08:22 | 49.46160 | 11.45536 | 4582 ft | 187 kts | 280° |
| 2026-04-14 08:22 | 49.46354 | 11.43561 | 4579 ft | 187 kts | 280° |
| 2026-04-14 08:22 | 49.46546 | 11.41585 | 4585 ft | 187 kts | 281° |
| 2026-04-14 08:23 | 49.46737 | 11.39618 | 4580 ft | 185 kts | 281° |
| 2026-04-14 08:23 | 49.46928 | 11.37663 | 4583 ft | 185 kts | 281° |
| 2026-04-14 08:23 | 49.47120 | 11.35708 | 4526 ft | 185 kts | 281° |
| 2026-04-14 08:23 | 49.47311 | 11.33783 | 4320 ft | 177 kts | 280° |
| 2026-04-14 08:24 | 49.47484 | 11.32020 | 4082 ft | 160 kts | 281° |
| 2026-04-14 08:24 | 49.47643 | 11.30397 | 3820 ft | 147 kts | 281° |
| 2026-04-14 08:24 | 49.47791 | 11.28903 | 3622 ft | 139 kts | 281° |
| 2026-04-14 08:24 | 49.47936 | 11.27436 | 3448 ft | 138 kts | 281° |
| 2026-04-14 08:25 | 49.48080 | 11.25975 | 3252 ft | 138 kts | 281° |
| 2026-04-14 08:25 | 49.48224 | 11.24521 | 3065 ft | 137 kts | 280° |
| 2026-04-14 08:25 | 49.48367 | 11.23070 | 2868 ft | 137 kts | 281° |
| 2026-04-14 08:25 | 49.48510 | 11.21618 | 2688 ft | 137 kts | 281° |
| 2026-04-14 08:26 | 49.48653 | 11.20176 | 2490 ft | 136 kts | 282° |
| 2026-04-14 08:26 | 49.48792 | 11.18754 | 2299 ft | 133 kts | 281° |
| 2026-04-14 08:26 | 49.48922 | 11.17362 | 2109 ft | 130 kts | 281° |
| 2026-04-14 08:26 | 49.49053 | 11.15979 | 1886 ft | 133 kts | 280° |
| 2026-04-14 08:27 | 49.49188 | 11.14567 | 1759 ft | 135 kts | 279° |
| 2026-04-14 08:27 | 49.49322 | 11.13139 | 1570 ft | 135 kts | 281° |
| 2026-04-14 08:27 | 49.49474 | 11.11720 | 1349 ft | 135 kts | 281° |
| 2026-04-14 08:27 | 49.49620 | 11.10308 | 1171 ft | 132 kts | 281° |
| 2026-04-14 08:28 | 49.49754 | 11.08948 | 1040 ft | 123 kts | 281° |
| 2026-04-14 08:28 | 49.49866 | 11.07864 | 1037 ft | 66 kts | 277° |
| 2026-04-14 08:28 | 49.49919 | 11.07314 | 1029 ft | 46 kts | 279° |
| 2026-04-14 08:28 | 49.49899 | 11.07021 | 1023 ft | 10 kts | 198° |
| 2026-04-14 08:29 | 49.49864 | 11.07024 | 1023 ft | 1 kts | 161° |
| 2026-04-14 08:29 | 49.49859 | 11.07026 | 1022 ft | 0 kts | 160° |
| 2026-04-14 08:29 | 49.49833 | 11.07042 | 1021 ft | 11 kts | 159° |
| 2026-04-14 08:29 | 49.49752 | 11.07122 | 1024 ft | 15 kts | 116° |
| 2026-04-14 08:30 | 49.49717 | 11.07222 | 1027 ft | 13 kts | 147° |
| 2026-04-14 08:30 | 49.49654 | 11.07230 | 1028 ft | 2 kts | 160° |
| 2026-04-14 08:30 | 49.49631 | 11.07309 | 1030 ft | 16 kts | 96° |
| 2026-04-14 08:30 | 49.49620 | 11.07432 | 1031 ft | 8 kts | 97° |
| 2026-04-14 08:31 | 49.49618 | 11.07457 | 1031 ft | 6 kts | 98° |
| 2026-04-14 08:31 | 49.49592 | 11.07635 | 1032 ft | 2 kts | 154° |
| 2026-04-14 08:31 | 49.49553 | 11.07594 | 1029 ft | 2 kts | 213° |
| 2026-04-14 08:32 | 49.49542 | 11.07588 | 1028 ft | 0 kts | 193° |